createdAt,value
2022-11-02T00:04:18.661Z,59.6
2022-11-02T00:09:10.080Z,59.6
2022-11-02T00:14:16.741Z,59.5
2022-11-02T00:19:37.769Z,59.5
2022-11-02T00:25:00.015Z,59.4
2022-11-02T00:30:23.607Z,59.4
2022-11-02T00:35:45.347Z,59.4
2022-11-02T00:41:27.220Z,59.3
2022-11-02T00:46:49.024Z,59.3
2022-11-02T00:52:26.176Z,59.2
2022-11-02T00:58:08.532Z,59.1
2022-11-02T01:03:47.174Z,59.1
2022-11-02T01:09:24.115Z,59.1
2022-11-02T01:15:03.534Z,59
2022-11-02T01:20:10.371Z,58.9
2022-11-02T01:25:31.230Z,58.9
2022-11-02T01:31:09.448Z,58.8
2022-11-02T01:36:30.824Z,58.8
2022-11-02T01:41:52.531Z,58.8
2022-11-02T01:47:14.704Z,58.7
2022-11-02T01:52:37.402Z,58.6
2022-11-02T02:07:23.679Z,58.5
2022-11-02T02:12:44.921Z,58.4
2022-11-02T02:17:56.687Z,58.4
2022-11-02T02:23:02.360Z,58.4
2022-11-02T02:28:08.132Z,58.3
2022-11-02T02:33:15.108Z,58.3
2022-11-02T02:38:36.730Z,58.3
2022-11-02T02:43:58.804Z,58.2
2022-11-02T02:49:21.077Z,58.2
2022-11-02T02:54:42.769Z,58.1
2022-11-02T03:00:20.220Z,58.1
2022-11-02T03:05:27.632Z,58
2022-11-02T03:11:04.216Z,58
2022-11-02T03:16:25.856Z,57.9
2022-11-02T03:21:48.925Z,57.9
2022-11-02T03:27:10.078Z,57.8
2022-11-02T03:42:28.102Z,57.7
2022-11-02T03:47:49.884Z,57.7
2022-11-02T03:52:56.611Z,57.6
2022-11-02T03:58:17.681Z,57.6
2022-11-02T04:03:40.487Z,57.6
2022-11-02T04:08:49.125Z,57.4
2022-11-02T04:14:25.637Z,57.4
2022-11-02T04:19:34.977Z,57.4
2022-11-02T04:24:41.063Z,57.3
2022-11-02T04:30:17.642Z,57.3
2022-11-02T04:35:54.948Z,57.2
2022-11-02T04:41:33.307Z,57.1
2022-11-02T04:47:13.273Z,57.1
2022-11-02T04:52:39.090Z,57.1
2022-11-02T04:58:01.399Z,57
2022-11-02T05:03:09.817Z,56.9
2022-11-02T05:08:40.793Z,56.9
2022-11-02T05:14:17.945Z,56.8
2022-11-02T05:20:00.415Z,56.8
2022-11-02T05:25:37.967Z,56.8
2022-11-02T05:31:05.092Z,56.7
2022-11-02T05:36:43.079Z,56.7
2022-11-02T05:42:23.742Z,56.6
2022-11-02T05:48:00.580Z,56.6
2022-11-02T05:53:23.412Z,56.6
2022-11-02T05:58:45.854Z,56.5
2022-11-02T06:04:10.771Z,56.4
2022-11-02T06:09:23.465Z,56.4
2022-11-02T06:14:30.642Z,56.3
2022-11-02T06:19:51.765Z,56.3
2022-11-02T06:25:13.777Z,56.3
2022-11-02T06:30:36.966Z,56.2
2022-11-02T06:36:14.897Z,56.1
2022-11-02T06:41:36.828Z,56.1
2022-11-02T06:47:38.655Z,56
2022-11-02T06:53:23.387Z,56
2022-11-02T06:58:30.495Z,55.9
2022-11-02T07:03:54.858Z,55.9
2022-11-02T07:09:04.855Z,55.8
2022-11-02T07:14:27.743Z,55.9
2022-11-02T07:20:06.787Z,55.8
2022-11-02T07:25:29.031Z,55.7
2022-11-02T07:31:07.085Z,55.7
2022-11-02T07:36:34.862Z,55.6
2022-11-02T07:42:12.898Z,55.6
2022-11-02T07:47:54.839Z,55.5
2022-11-02T07:53:37.431Z,55.5
2022-11-02T07:59:01.283Z,55.4
2022-11-02T08:04:27.099Z,55.4
2022-11-02T08:09:51.103Z,55.3
2022-11-02T08:15:13.399Z,55.3
2022-11-02T08:20:36.158Z,55.3
2022-11-02T08:26:00.504Z,55.2
2022-11-02T08:30:56.206Z,55.1
2022-11-02T08:36:23.215Z,55.1
2022-11-02T08:41:52.894Z,55.1
2022-11-02T08:47:56.446Z,54.9
2022-11-02T08:53:18.283Z,54.9
2022-11-02T08:58:41.508Z,54.9
2022-11-02T09:04:03.870Z,54.9
2022-11-02T09:09:29.424Z,54.9
2022-11-02T09:15:08.565Z,55.2
2022-11-02T09:20:31.001Z,55.6
2022-11-02T09:25:53.112Z,55.9
2022-11-02T09:31:25.559Z,56.3
2022-11-02T09:37:03.966Z,56.7
2022-11-02T09:42:41.777Z,57.1
2022-11-02T09:48:58.000Z,57.5
2022-11-02T09:54:38.999Z,58
2022-11-02T10:00:01.598Z,58.4
2022-11-02T10:05:24.578Z,58.8
2022-11-02T10:10:46.727Z,59.1
2022-11-02T10:15:58.581Z,59.6
2022-11-02T10:21:20.772Z,59.9
2022-11-02T10:26:58.136Z,60.3
2022-11-02T10:32:38.815Z,60.6
2022-11-02T10:39:04.088Z,61.1
2022-11-02T10:44:42.309Z,61.4
2022-11-02T10:49:49.253Z,61.8
2022-11-02T10:56:13.302Z,62.1
2022-11-02T11:01:21.080Z,62.4
2022-11-02T11:06:59.629Z,62.8
2022-11-02T11:12:22.799Z,63
2022-11-02T11:21:56.931Z,63.6
2022-11-02T11:27:23.408Z,63.8
2022-11-02T11:33:20.062Z,64
2022-11-02T11:38:45.346Z,64.2
2022-11-02T11:43:55.895Z,64.3
2022-11-02T11:48:39.603Z,64.5
2022-11-02T11:54:19.389Z,64.6
2022-11-02T11:59:11.082Z,64.8
2022-11-02T12:04:25.059Z,64.8
2022-11-02T12:09:52.643Z,64.9
2022-11-02T12:15:23.405Z,65
2022-11-02T12:20:45.412Z,65.1
2022-11-02T12:26:08.176Z,65.1
2022-11-02T12:31:14.394Z,65.1
2022-11-02T12:37:43.030Z,65.1
2022-11-02T12:43:06.080Z,65
2022-11-02T12:48:28.864Z,65.1
2022-11-02T12:53:37.321Z,65.1
2022-11-02T12:58:49.304Z,65.1
2022-11-02T13:04:13.068Z,65.1
2022-11-02T13:09:38.679Z,65
2022-11-02T13:14:48.714Z,64.9
2022-11-02T13:20:17.257Z,64.9
2022-11-02T13:25:47.521Z,64.9
2022-11-02T13:31:23.988Z,64.8
2022-11-02T13:36:35.355Z,64.8
2022-11-02T13:41:42.481Z,64.8
2022-11-02T13:47:04.842Z,64.8
2022-11-02T13:52:47.823Z,64.6
2022-11-02T13:57:59.425Z,64.6
2022-11-02T14:03:42.639Z,64.6
2022-11-02T14:09:23.185Z,64.5
2022-11-02T14:15:01.797Z,64.4
2022-11-02T14:20:44.042Z,64.4
2022-11-02T14:26:22.364Z,64.3
2022-11-02T14:32:05.277Z,64.3
2022-11-02T14:37:41.720Z,64.3
2022-11-02T14:43:22.101Z,64.2
2022-11-02T14:49:00.721Z,64.1
2022-11-02T14:54:39.518Z,64.1
2022-11-02T14:59:50.187Z,64.1
2022-11-02T15:05:17.502Z,64
2022-11-02T15:10:55.392Z,63.9
2022-11-02T15:16:37.080Z,63.9
2022-11-02T15:22:14.737Z,63.8
2022-11-02T15:27:50.316Z,63.8
2022-11-02T15:33:50.998Z,63.7
2022-11-02T15:40:02.950Z,63.7
2022-11-02T15:46:09.358Z,63.6
2022-11-02T15:51:16.751Z,63.6
2022-11-02T15:57:06.669Z,63.5
2022-11-02T16:02:44.636Z,63.4
2022-11-02T16:08:39.888Z,63.4
2022-11-02T16:14:42.090Z,63.4
2022-11-02T16:20:19.489Z,63.3
2022-11-02T16:25:43.569Z,63.3
2022-11-02T16:31:30.017Z,63.2
2022-11-02T16:37:10.410Z,63.1
2022-11-02T16:42:32.348Z,63.1
2022-11-02T16:48:02.060Z,63.1
2022-11-02T16:53:42.476Z,63
2022-11-02T16:59:23.273Z,62.9
2022-11-02T17:05:04.337Z,62.9
2022-11-02T17:10:28.130Z,62.8
2022-11-02T17:16:12.059Z,62.8
2022-11-02T17:21:50.520Z,62.8
2022-11-02T17:27:12.933Z,62.7
2022-11-02T17:32:35.020Z,62.6
2022-11-02T17:38:18.123Z,62.6
2022-11-02T17:43:40.520Z,62.6
2022-11-02T17:48:47.805Z,62.5
2022-11-02T17:54:10.517Z,62.4
2022-11-02T17:59:17.095Z,62.4
2022-11-02T18:04:39.903Z,62.3
2022-11-02T18:10:22.939Z,62.3
2022-11-02T18:16:00.554Z,62.3
2022-11-02T18:21:37.618Z,62.2
2022-11-02T18:27:21.612Z,62.1
2022-11-02T18:32:46.281Z,62.1
2022-11-02T18:38:24.527Z,62
2022-11-02T18:43:46.535Z,61.9
2022-11-02T18:49:28.225Z,61.9
2022-11-02T18:55:12.301Z,61.9
2022-11-02T19:00:38.070Z,61.8
2022-11-02T19:06:19.208Z,61.8
2022-11-02T19:11:49.781Z,61.8
2022-11-02T19:17:27.470Z,61.6
2022-11-02T19:22:54.420Z,61.6
2022-11-02T19:28:31.896Z,61.6
2022-11-02T19:34:11.933Z,61.5
2022-11-02T19:39:52.591Z,61.5
2022-11-02T19:45:32.060Z,61.4
2022-11-02T19:51:12.324Z,61.4
2022-11-02T19:56:50.865Z,61.3
2022-11-02T20:02:28.987Z,61.3
2022-11-02T20:07:51.025Z,61.2
2022-11-02T20:13:29.147Z,61.1
2022-11-02T20:19:42.531Z,61.1
2022-11-02T20:25:11.581Z,61.1
2022-11-02T20:30:53.774Z,61
2022-11-02T20:36:03.175Z,60.9
2022-11-02T20:41:46.224Z,60.9
2022-11-02T20:47:59.771Z,60.9
2022-11-02T20:54:08.872Z,60.8
2022-11-02T20:59:31.342Z,60.8
2022-11-02T21:05:11.351Z,60.7
2022-11-02T21:10:51.852Z,60.6
2022-11-02T21:16:29.958Z,60.6
2022-11-02T21:22:35.057Z,60.6
2022-11-02T21:27:57.752Z,60.5
2022-11-02T21:33:36.182Z,60.4
2022-11-02T21:39:13.831Z,60.4
2022-11-02T21:44:36.706Z,60.3
2022-11-02T21:50:14.702Z,60.3
2022-11-02T21:55:52.789Z,60.3
2022-11-02T22:01:37.024Z,60.2
2022-11-02T22:07:20.810Z,60.1
2022-11-02T22:12:42.405Z,60.1
2022-11-02T22:18:49.224Z,60.1
2022-11-02T22:24:26.339Z,60
2022-11-02T22:30:05.613Z,59.9
2022-11-02T22:35:43.111Z,59.9
2022-11-02T22:41:05.019Z,59.8
2022-11-02T22:46:42.586Z,59.8
2022-11-02T22:52:24.761Z,59.8
2022-11-02T22:57:46.905Z,59.7
2022-11-02T23:02:54.449Z,59.6
2022-11-02T23:08:31.800Z,59.6
2022-11-02T23:14:10.130Z,59.5
2022-11-02T23:19:16.990Z,59.5
2022-11-02T23:24:56.368Z,59.4
2022-11-02T23:30:19.284Z,59.4
2022-11-02T23:35:56.849Z,59.4
2022-11-02T23:41:03.207Z,59.3
2022-11-02T23:52:02.809Z,59.2
2022-11-02T23:57:39.150Z,59.2
